Terminal Aerodrome Forecast
Issued by NWS Shreveport, LA

Home | Current Version | Previous Version | Text Only | Print | Product List | Glossary On
Versions: 1 2 3 4 5 6 7 8 9 10 11 12 13 14 15 16 17 18 19
000
FTUS44 KSHV 232342
TAFMLU
TAF
KMLU 232342Z 2400/2424 VRB10G15KT P6SM -TSRA BKN050CB BKN100
     FM240300 04004KT P6SM VCSH SCT050 BKN250
     FM240600 04003KT P6SM SCT150 BKN200
     FM241600 06008KT P6SM BKN050 BKN250=

USA.gov is the U.S. government's official web portal to all federal, state and local government web resources and services.